Time;durP1;ratioP1;P1;durP2;ratioP2;P2;SDS_P1;SDS_P2;PMS_P1;PMS_P2;Temp;Humidity;BMP_temperature;BMP_pressure;BME280_temperature;BME280_humidity;BME280_pressure;Samples;Min_cycle;Max_cycle;Signal;HPM_P1;HPM_P2
2022/01/22 00:00:15;;;;;;;16.77;8.53;;;5.00;99.90;;;;;;5031996;28;20196;-79
2022/01/22 00:02:40;;;;;;;26.37;9.57;;;5.00;99.90;;;;;;5032733;28;20582;-79
2022/01/22 00:05:08;;;;;;;20.73;10.27;;;4.90;99.90;;;;;;5031888;28;20176;-79
2022/01/22 00:07:34;;;;;;;31.50;13.07;;;5.00;99.90;;;;;;5031799;28;20710;-79
2022/01/22 00:10:04;;;;;;;23.13;11.03;;;5.00;99.90;;;;;;5032717;28;20207;-79
2022/01/22 00:15:09;;;;;;;28.47;11.50;;;5.00;99.90;;;;;;5033524;28;20152;-79
2022/01/22 00:17:35;;;;;;;28.43;12.93;;;5.00;99.90;;;;;;5034010;28;20156;-79
2022/01/22 00:20:01;;;;;;;26.37;12.10;;;5.00;99.90;;;;;;5031767;28;20634;-79
2022/01/22 00:22:30;;;;;;;21.93;11.87;;;5.00;99.90;;;;;;5033585;28;20638;-79
2022/01/22 00:25:01;;;;;;;18.30;12.67;;;5.00;99.90;;;;;;5033244;28;20169;-79
2022/01/22 00:27:28;;;;;;;25.27;12.20;;;5.00;99.90;;;;;;5031450;28;20551;-79
2022/01/22 00:29:54;;;;;;;25.67;13.40;;;5.00;99.90;;;;;;5033212;28;20184;-79
2022/01/22 00:32:20;;;;;;;27.03;12.73;;;5.00;99.90;;;;;;5030736;28;20172;-79
2022/01/22 00:34:46;;;;;;;28.23;12.53;;;5.00;99.90;;;;;;5030346;28;20168;-79
2022/01/22 00:37:12;;;;;;;28.43;12.47;;;5.00;99.90;;;;;;5032033;28;20179;-79
2022/01/22 00:39:37;;;;;;;20.37;12.33;;;5.00;99.90;;;;;;5030684;28;20273;-79
2022/01/22 00:42:10;;;;;;;30.20;14.13;;;5.00;99.90;;;;;;5030914;28;20250;-79
2022/01/22 00:44:36;;;;;;;32.67;14.33;;;5.00;99.90;;;;;;5030917;28;20160;-79
2022/01/22 00:47:02;;;;;;;23.53;13.40;;;5.00;99.90;;;;;;5032047;28;20204;-79
2022/01/22 00:49:29;;;;;;;29.80;11.13;;;5.00;99.90;;;;;;5031743;28;20171;-78
2022/01/22 00:51:54;;;;;;;20.17;9.37;;;5.00;99.90;;;;;;5032024;28;20172;-79
2022/01/22 00:54:20;;;;;;;20.67;10.00;;;5.00;99.90;;;;;;5030016;28;20177;-79
2022/01/22 00:56:46;;;;;;;30.10;12.37;;;4.90;99.90;;;;;;5032001;28;20226;-79
2022/01/22 00:59:11;;;;;;;31.80;13.67;;;4.90;99.90;;;;;;5031756;28;20181;-79
2022/01/22 01:01:37;;;;;;;29.17;16.30;;;5.00;99.90;;;;;;5031892;28;20249;-78
2022/01/22 01:04:03;;;;;;;20.67;11.60;;;5.00;99.90;;;;;;5031254;28;20256;-79
2022/01/22 01:06:29;;;;;;;20.73;11.03;;;5.00;99.90;;;;;;5030130;28;20196;-79
2022/01/22 01:08:55;;;;;;;19.37;9.50;;;5.00;99.90;;;;;;5030346;28;20326;-79
2022/01/22 01:11:24;;;;;;;19.50;9.60;;;4.90;99.90;;;;;;5031569;28;20204;-79
2022/01/22 01:13:56;;;;;;;22.23;10.33;;;4.90;99.90;;;;;;5030068;28;20183;-79
2022/01/22 01:16:44;;;;;;;25.40;10.30;;;4.90;99.90;;;;;;5031286;28;20646;-79
2022/01/22 01:35:45;;;;;;;25.43;14.07;;;4.70;99.90;;;;;;5045586;28;20262;-79
2022/01/22 01:38:11;;;;;;;27.83;15.13;;;4.80;99.90;;;;;;5015315;28;20181;-79
2022/01/22 01:40:41;;;;;;;22.60;12.83;;;4.70;99.90;;;;;;5013977;28;20201;-79
2022/01/22 01:43:18;;;;;;;28.13;12.77;;;4.80;99.90;;;;;;5013414;28;20177;-79
2022/01/22 01:45:43;;;;;;;25.17;14.70;;;4.80;99.90;;;;;;5029900;28;20172;-78
2022/01/22 01:48:15;;;;;;;29.03;13.00;;;4.80;99.90;;;;;;5034154;28;20208;-79
2022/01/22 01:50:42;;;;;;;25.47;10.67;;;4.80;99.90;;;;;;5033471;28;20196;-79
2022/01/22 01:53:18;;;;;;;21.23;12.00;;;4.80;99.90;;;;;;5034591;28;20545;-79
2022/01/22 01:56:05;;;;;;;17.70;11.57;;;4.80;99.90;;;;;;5033059;28;20717;-78
2022/01/22 01:58:30;;;;;;;28.70;14.93;;;4.80;99.90;;;;;;5034611;28;20164;-79
2022/01/22 02:01:00;;;;;;;33.23;16.40;;;4.80;99.90;;;;;;5033446;28;20200;-79
2022/01/22 02:03:26;;;;;;;31.83;17.90;;;4.80;99.90;;;;;;5033344;28;20557;-79
2022/01/22 02:05:52;;;;;;;40.17;18.63;;;4.80;99.90;;;;;;5034171;28;20176;-78
2022/01/22 02:08:18;;;;;;;34.97;18.97;;;4.90;99.90;;;;;;5034695;28;20637;-79
2022/01/22 02:10:53;;;;;;;42.53;19.07;;;4.90;99.90;;;;;;5034220;28;20188;-79
2022/01/22 02:23:33;;;;;;;32.53;16.07;;;5.00;99.90;;;;;;5035121;28;20164;-79
2022/01/22 02:24:40;;;;;;;35.23;18.13;;;5.00;99.90;;;;;;5034523;28;20228;-79
2022/01/22 02:27:06;;;;;;;31.47;16.60;;;5.00;99.90;;;;;;5033366;28;20598;-79
2022/01/22 02:29:31;;;;;;;35.37;17.60;;;5.00;99.90;;;;;;5033287;28;20229;-78
2022/01/22 02:32:18;;;;;;;30.10;18.17;;;5.00;99.90;;;;;;5033393;28;20187;-78
2022/01/22 02:34:52;;;;;;;39.47;20.03;;;5.00;99.90;;;;;;5033072;28;20176;-79
2022/01/22 02:37:20;;;;;;;41.37;19.30;;;5.10;99.90;;;;;;5031854;28;20229;-78
2022/01/22 02:39:59;;;;;;;40.77;20.60;;;5.10;99.90;;;;;;5033226;28;20679;-79
2022/01/22 02:42:32;;;;;;;33.07;19.50;;;5.10;99.90;;;;;;5032919;28;20172;-78
2022/01/22 02:44:57;;;;;;;32.23;18.23;;;5.10;99.90;;;;;;5032082;28;20192;-79
2022/01/22 02:47:23;;;;;;;34.10;17.63;;;5.10;99.90;;;;;;5033074;28;20642;-79
2022/01/22 02:49:49;;;;;;;29.60;17.50;;;5.00;99.90;;;;;;5031492;28;20196;-79
2022/01/22 02:52:17;;;;;;;34.17;18.13;;;5.00;99.90;;;;;;5032699;28;20308;-79
2022/01/22 02:54:44;;;;;;;37.23;19.73;;;5.00;99.90;;;;;;5031764;28;20271;-79
2022/01/22 02:57:11;;;;;;;31.77;17.77;;;5.00;99.90;;;;;;5031900;28;20599;-79
2022/01/22 02:59:37;;;;;;;39.93;19.17;;;5.00;99.90;;;;;;5032734;28;20544;-79
2022/01/22 03:02:05;;;;;;;36.73;19.27;;;5.00;99.90;;;;;;5031088;28;20184;-79
2022/01/22 03:04:31;;;;;;;35.70;20.83;;;5.00;99.90;;;;;;5031409;28;20180;-78
2022/01/22 03:06:57;;;;;;;32.63;20.00;;;5.00;99.90;;;;;;5032364;28;20193;-79
2022/01/22 03:09:28;;;;;;;43.10;23.33;;;5.00;99.90;;;;;;5030748;28;20215;-78
2022/01/22 03:12:18;;;;;;;37.80;22.13;;;5.00;99.90;;;;;;5032456;28;20263;-79
2022/01/22 03:15:26;;;;;;;38.63;20.43;;;5.00;99.90;;;;;;5032750;28;20567;-78
2022/01/22 03:27:50;;;;;;;40.77;21.57;;;5.00;99.90;;;;;;5032919;28;20700;-79
2022/01/22 03:30:16;;;;;;;36.73;19.33;;;5.00;99.90;;;;;;5032227;28;20200;-79
2022/01/22 03:32:45;;;;;;;32.07;19.73;;;5.00;99.90;;;;;;5032520;28;20653;-79
2022/01/22 03:35:24;;;;;;;42.43;22.70;;;5.00;99.90;;;;;;5032421;28;20180;-79
2022/01/22 03:37:53;;;;;;;32.63;19.60;;;5.00;99.90;;;;;;5032741;28;20253;-79
2022/01/22 03:40:21;;;;;;;35.77;20.97;;;5.00;99.90;;;;;;5032925;28;20202;-79
2022/01/22 03:42:48;;;;;;;35.23;20.63;;;5.00;99.90;;;;;;5031652;28;20177;-79
2022/01/22 03:45:15;;;;;;;33.47;19.67;;;5.00;99.90;;;;;;5031386;28;20214;-79
2022/01/22 03:47:41;;;;;;;32.40;19.00;;;5.00;99.90;;;;;;5033177;28;20208;-79
2022/01/22 03:50:09;;;;;;;29.73;18.50;;;5.00;99.90;;;;;;5032073;28;20196;-79
2022/01/22 03:52:35;;;;;;;28.97;19.03;;;5.00;99.90;;;;;;5030912;28;20267;-79
2022/01/22 03:55:02;;;;;;;25.90;18.07;;;5.00;99.90;;;;;;5031980;28;20215;-79
2022/01/22 03:57:27;;;;;;;32.20;18.07;;;5.00;99.90;;;;;;5032412;28;20201;-79
2022/01/22 03:59:55;;;;;;;31.57;17.13;;;5.00;99.90;;;;;;5032199;28;20192;-79
2022/01/22 04:05:02;;;;;;;32.77;18.83;;;5.00;99.90;;;;;;5032503;28;20242;-78
2022/01/22 04:09:59;;;;;;;26.60;17.67;;;5.00;99.90;;;;;;5033989;28;20199;-78
2022/01/22 04:15:12;;;;;;;30.10;18.63;;;5.00;99.90;;;;;;5051326;28;20179;-78
2022/01/22 04:25:44;;;;;;;33.07;19.43;;;5.00;99.90;;;;;;5031274;28;20276;-78
2022/01/22 04:28:12;;;;;;;29.77;18.73;;;5.10;99.90;;;;;;5031093;28;20188;-78
2022/01/22 04:30:38;;;;;;;31.50;19.13;;;5.10;99.90;;;;;;5030217;28;20195;-78
2022/01/22 04:33:04;;;;;;;26.87;19.17;;;5.00;99.90;;;;;;5030749;28;20165;-78
2022/01/22 04:35:30;;;;;;;31.13;19.77;;;5.00;99.90;;;;;;5030396;28;20661;-78
2022/01/22 04:37:56;;;;;;;28.93;20.70;;;5.10;99.90;;;;;;5029617;28;20547;-78
2022/01/22 04:40:22;;;;;;;35.83;20.20;;;5.00;99.90;;;;;;5030654;28;20209;-79
2022/01/22 04:42:48;;;;;;;30.63;19.67;;;5.00;99.90;;;;;;5030169;28;20177;-78
2022/01/22 04:47:51;;;;;;;32.87;19.33;;;5.10;99.90;;;;;;5030958;28;20196;-79
2022/01/22 04:55:38;;;;;;;37.37;20.60;;;5.10;99.90;;;;;;5030948;28;20622;-77
2022/01/22 04:58:04;;;;;;;29.10;19.73;;;5.00;99.90;;;;;;5029183;28;20176;-77
2022/01/22 05:00:33;;;;;;;40.43;20.83;;;5.00;99.90;;;;;;5030224;28;20547;-78
2022/01/22 05:02:59;;;;;;;32.93;20.83;;;5.10;99.90;;;;;;5030125;28;20227;-78
2022/01/22 05:05:26;;;;;;;30.83;21.07;;;5.00;99.90;;;;;;5030222;28;20203;-77
2022/01/22 05:07:52;;;;;;;34.73;20.37;;;5.10;99.90;;;;;;5031707;28;20210;-77
2022/01/22 05:10:18;;;;;;;28.87;20.50;;;5.10;99.90;;;;;;5033965;28;20256;-78
2022/01/22 05:12:43;;;;;;;28.50;20.47;;;5.10;99.90;;;;;;5033911;28;20208;-78
2022/01/22 05:15:09;;;;;;;34.37;20.63;;;5.10;99.90;;;;;;5033419;28;20176;-78
2022/01/22 05:17:39;;;;;;;29.17;20.30;;;5.10;99.90;;;;;;5033714;28;20196;-78
2022/01/22 05:20:28;;;;;;;31.90;19.73;;;5.10;99.90;;;;;;5033572;28;20192;-78
2022/01/22 05:23:04;;;;;;;27.27;20.77;;;5.10;99.90;;;;;;5033354;28;20172;-77
2022/01/22 05:25:47;;;;;;;31.83;20.97;;;5.10;99.90;;;;;;5032785;28;20840;-78
2022/01/22 05:38:21;;;;;;;33.97;20.87;;;5.10;99.90;;;;;;5033857;28;20167;-77
2022/01/22 05:40:47;;;;;;;29.27;20.83;;;5.10;99.90;;;;;;5033239;28;20565;-77
2022/01/22 05:43:13;;;;;;;30.80;21.70;;;5.10;99.90;;;;;;5031879;28;20180;-77
2022/01/22 05:45:38;;;;;;;33.03;22.10;;;5.10;99.90;;;;;;5033183;28;20176;-77
2022/01/22 05:48:04;;;;;;;35.77;20.90;;;5.10;99.90;;;;;;5033037;28;20200;-78
2022/01/22 05:50:54;;;;;;;34.63;21.67;;;5.10;99.90;;;;;;5031632;28;20738;-78
2022/01/22 05:53:48;;;;;;;30.00;21.07;;;5.10;99.90;;;;;;5033051;28;20662;-78
2022/01/22 06:01:20;;;;;;;30.33;20.13;;;5.10;99.90;;;;;;5033258;28;20324;-78
2022/01/22 06:03:46;;;;;;;30.00;20.80;;;5.10;99.90;;;;;;5032705;28;20204;-78
2022/01/22 06:06:11;;;;;;;34.73;20.87;;;5.10;99.90;;;;;;5032608;28;20231;-77
2022/01/22 06:08:52;;;;;;;31.73;21.80;;;5.10;99.90;;;;;;5032860;28;20192;-78
2022/01/22 06:11:25;;;;;;;30.50;20.87;;;5.10;99.90;;;;;;5031171;28;20196;-77
2022/01/22 06:13:52;;;;;;;32.47;21.27;;;5.10;99.90;;;;;;5032857;28;20533;-78
2022/01/22 06:16:20;;;;;;;37.03;20.10;;;5.10;99.90;;;;;;5032404;28;20604;-78
2022/01/22 06:18:46;;;;;;;31.33;21.37;;;5.20;99.90;;;;;;5030790;28;20202;-77
2022/01/22 06:21:12;;;;;;;36.00;20.97;;;5.20;99.90;;;;;;5030940;28;20282;-78
2022/01/22 06:23:39;;;;;;;28.27;19.60;;;5.20;99.90;;;;;;5031407;28;20211;-78
2022/01/22 06:26:05;;;;;;;39.77;21.13;;;5.20;99.90;;;;;;5031209;28;20176;-78
2022/01/22 06:28:32;;;;;;;33.77;20.80;;;5.20;99.90;;;;;;5031745;28;20606;-77
2022/01/22 06:30:58;;;;;;;41.53;22.43;;;5.20;99.90;;;;;;5030332;28;20197;-78
2022/01/22 06:33:24;;;;;;;38.17;21.17;;;5.20;99.90;;;;;;5032280;28;20177;-78
2022/01/22 06:35:50;;;;;;;34.47;20.10;;;5.20;99.90;;;;;;5032481;28;20241;-77
2022/01/22 06:38:16;;;;;;;33.73;21.50;;;5.20;99.90;;;;;;5032646;28;20168;-78
2022/01/22 06:43:08;;;;;;;36.03;20.47;;;5.20;99.90;;;;;;5033629;28;20256;-79
2022/01/22 06:45:33;;;;;;;35.13;20.47;;;5.30;99.90;;;;;;5032610;28;20578;-79
2022/01/22 06:47:59;;;;;;;34.47;21.13;;;5.20;99.90;;;;;;5032206;28;20211;-79
2022/01/22 06:50:25;;;;;;;32.37;21.13;;;5.30;99.90;;;;;;5032054;28;20192;-78
2022/01/22 06:52:58;;;;;;;33.30;20.17;;;5.30;99.90;;;;;;5031730;28;20184;-79
2022/01/22 06:55:43;;;;;;;36.57;20.00;;;5.30;99.90;;;;;;5032947;28;20168;-79
2022/01/22 06:58:09;;;;;;;34.30;20.47;;;5.30;99.90;;;;;;5033484;28;20506;-79
2022/01/22 07:00:34;;;;;;;34.30;20.53;;;5.30;99.90;;;;;;5032479;28;20198;-79
2022/01/22 07:03:02;;;;;;;31.90;21.03;;;5.30;99.90;;;;;;5033884;28;20181;-78
2022/01/22 07:05:27;;;;;;;29.10;19.20;;;5.30;99.90;;;;;;5032487;28;20661;-79
2022/01/22 07:07:53;;;;;;;37.40;20.80;;;5.30;99.90;;;;;;5033630;28;20212;-79
2022/01/22 07:10:19;;;;;;;30.23;19.73;;;5.30;99.90;;;;;;5032646;28;20189;-79
2022/01/22 07:12:45;;;;;;;37.77;20.13;;;5.30;99.90;;;;;;5033093;28;20168;-79
2022/01/22 07:15:10;;;;;;;32.20;20.40;;;5.30;99.90;;;;;;5032794;28;20255;-79
2022/01/22 07:17:38;;;;;;;35.30;19.07;;;5.30;99.90;;;;;;5033035;28;20191;-79
2022/01/22 07:20:09;;;;;;;33.50;20.10;;;5.30;99.90;;;;;;5031224;28;20223;-79
2022/01/22 07:22:47;;;;;;;32.60;20.33;;;5.30;99.90;;;;;;5032155;28;20225;-79
2022/01/22 07:25:12;;;;;;;31.17;20.17;;;5.30;99.90;;;;;;5033425;28;20161;-79
2022/01/22 07:27:38;;;;;;;31.13;21.03;;;5.50;99.90;;;;;;5034021;28;20301;-78
2022/01/22 07:30:04;;;;;;;32.00;20.13;;;5.30;99.90;;;;;;5032821;28;20225;-78
2022/01/22 07:32:35;;;;;;;29.83;21.30;;;5.40;99.90;;;;;;5032452;28;20562;-79
2022/01/22 07:35:01;;;;;;;33.23;21.03;;;5.40;99.90;;;;;;5034433;28;20164;-78
2022/01/22 07:37:27;;;;;;;32.87;21.80;;;5.40;99.90;;;;;;5033697;28;20247;-79
2022/01/22 07:39:52;;;;;;;29.93;20.77;;;5.40;99.90;;;;;;5034028;28;20195;-79
2022/01/22 07:42:18;;;;;;;30.23;20.10;;;5.40;99.90;;;;;;5036491;28;20248;-80
2022/01/22 07:44:43;;;;;;;36.70;21.07;;;5.40;99.90;;;;;;5034982;28;20173;-80
2022/01/22 07:47:09;;;;;;;33.17;21.60;;;5.40;99.90;;;;;;5034986;28;20183;-80
2022/01/22 07:49:35;;;;;;;36.83;21.67;;;5.40;99.90;;;;;;5032831;28;20196;-80
2022/01/22 07:52:00;;;;;;;37.40;22.30;;;5.40;99.90;;;;;;5034376;28;20172;-79
2022/01/22 07:54:26;;;;;;;30.57;20.90;;;5.40;99.90;;;;;;5033452;28;20172;-80
2022/01/22 07:56:51;;;;;;;40.90;21.90;;;5.50;99.90;;;;;;5034641;28;20172;-80
2022/01/22 07:59:17;;;;;;;40.67;23.37;;;5.50;99.90;;;;;;5034263;28;20263;-80
2022/01/22 08:01:42;;;;;;;38.07;24.27;;;5.40;99.90;;;;;;5033646;28;20199;-80
2022/01/22 08:04:08;;;;;;;37.27;24.03;;;5.50;99.90;;;;;;5030725;28;20695;-79
2022/01/22 08:06:33;;;;;;;33.03;22.23;;;5.50;99.90;;;;;;5030617;28;20206;-79
2022/01/22 08:08:59;;;;;;;34.63;21.87;;;5.50;99.90;;;;;;5030975;28;20231;-82
2022/01/22 08:11:25;;;;;;;35.23;22.83;;;5.60;99.90;;;;;;5030596;28;20539;-82
2022/01/22 08:13:50;;;;;;;40.53;23.67;;;5.50;99.90;;;;;;5029944;28;20204;-81
2022/01/22 08:16:16;;;;;;;35.27;23.33;;;5.50;99.90;;;;;;5030601;28;20217;-81
2022/01/22 08:18:41;;;;;;;33.90;21.27;;;5.50;99.90;;;;;;5030815;28;20652;-79
2022/01/22 08:21:07;;;;;;;36.67;24.10;;;5.50;99.90;;;;;;5031773;28;20192;-79
2022/01/22 08:23:33;;;;;;;34.47;24.03;;;5.50;99.90;;;;;;5032843;28;20529;-79
2022/01/22 08:25:59;;;;;;;43.87;24.20;;;5.50;99.90;;;;;;5031171;28;20194;-80
2022/01/22 08:31:23;;;;;;;38.00;23.07;;;5.50;99.90;;;;;;5032079;28;20660;-82
2022/01/22 08:36:33;;;;;;;38.63;23.60;;;5.50;99.90;;;;;;5032915;28;20160;-82
2022/01/22 08:38:58;;;;;;;40.37;24.57;;;5.60;99.90;;;;;;5032657;28;20181;-81
2022/01/22 08:41:24;;;;;;;36.27;24.80;;;5.60;99.90;;;;;;5033261;28;20192;-82
2022/01/22 08:43:49;;;;;;;45.50;24.30;;;5.60;99.90;;;;;;5034088;28;20208;-82
2022/01/22 08:46:15;;;;;;;39.70;25.13;;;5.60;99.90;;;;;;5034280;28;20184;-79
2022/01/22 08:48:40;;;;;;;37.03;24.20;;;5.60;99.90;;;;;;5033815;28;20207;-80
2022/01/22 08:51:07;;;;;;;42.47;26.10;;;5.60;99.90;;;;;;5035753;28;20188;-80
2022/01/22 08:53:32;;;;;;;42.17;24.87;;;5.60;99.90;;;;;;5034609;28;20637;-78
2022/01/22 08:56:00;;;;;;;39.00;25.40;;;5.60;99.90;;;;;;5034710;28;20243;-80
2022/01/22 08:58:26;;;;;;;38.07;24.50;;;5.60;99.90;;;;;;5036304;28;20172;-81
2022/01/22 09:00:54;;;;;;;42.57;25.70;;;5.60;99.90;;;;;;5035228;28;20201;-81
2022/01/22 09:03:20;;;;;;;40.10;25.83;;;5.60;99.90;;;;;;5039058;28;20343;-81
2022/01/22 09:05:47;;;;;;;39.83;25.80;;;5.50;99.90;;;;;;5037506;28;20169;-80
2022/01/22 09:08:17;;;;;;;46.07;27.07;;;5.60;99.90;;;;;;5036969;28;20208;-79
2022/01/22 09:10:43;;;;;;;45.27;25.73;;;5.60;99.90;;;;;;5035083;28;20257;-78
2022/01/22 09:13:12;;;;;;;37.93;26.73;;;5.60;99.90;;;;;;5033708;28;20200;-79
2022/01/22 09:15:39;;;;;;;45.20;25.97;;;5.60;99.90;;;;;;5035620;28;20240;-80
2022/01/22 09:18:07;;;;;;;43.10;26.23;;;5.60;99.90;;;;;;5034747;28;20180;-82
2022/01/22 09:23:07;;;;;;;45.87;27.40;;;5.60;99.90;;;;;;5037685;28;20221;-80
2022/01/22 09:25:33;;;;;;;43.67;27.13;;;5.70;99.90;;;;;;5038256;28;20212;-79
2022/01/22 09:27:58;;;;;;;37.40;25.10;;;5.60;99.90;;;;;;5035638;28;20204;-79
2022/01/22 09:30:24;;;;;;;35.70;24.33;;;5.60;99.90;;;;;;5037671;28;20326;-79
2022/01/22 09:32:50;;;;;;;42.30;24.80;;;5.60;99.90;;;;;;5037767;28;20208;-78
2022/01/22 09:35:15;;;;;;;39.03;25.30;;;5.60;99.90;;;;;;5038418;28;20181;-79
2022/01/22 09:37:42;;;;;;;36.30;24.83;;;5.60;99.90;;;;;;5035162;28;20184;-79
2022/01/22 09:40:08;;;;;;;42.43;26.70;;;5.60;99.90;;;;;;5032747;28;20619;-79
2022/01/22 09:42:34;;;;;;;43.13;26.40;;;5.60;99.90;;;;;;5034259;28;20223;-78
2022/01/22 09:44:59;;;;;;;43.70;27.47;;;5.60;99.90;;;;;;5032715;28;20180;-78
2022/01/22 09:47:26;;;;;;;40.20;27.43;;;5.60;99.90;;;;;;5034000;28;20637;-78
2022/01/22 09:49:51;;;;;;;46.57;31.23;;;5.60;99.90;;;;;;5031835;28;20216;-79
2022/01/22 09:52:18;;;;;;;52.97;33.20;;;5.70;99.90;;;;;;5031920;28;20219;-79
2022/01/22 09:54:44;;;;;;;51.03;31.97;;;5.70;99.90;;;;;;5034143;28;20172;-79
2022/01/22 09:57:10;;;;;;;50.63;31.77;;;5.70;99.90;;;;;;5032996;28;20188;-79
2022/01/22 09:59:36;;;;;;;56.03;33.67;;;5.70;99.90;;;;;;5036105;28;20180;-79
2022/01/22 10:02:11;;;;;;;59.23;34.33;;;5.80;99.90;;;;;;5035816;28;20191;-79
2022/01/22 10:04:39;;;;;;;56.53;33.30;;;5.80;99.90;;;;;;5034000;28;20191;-79
2022/01/22 10:07:13;;;;;;;52.93;31.80;;;5.80;99.90;;;;;;5034861;28;20223;-79
2022/01/22 10:10:00;;;;;;;47.30;30.17;;;5.90;99.90;;;;;;5034901;28;20606;-80
2022/01/22 10:12:29;;;;;;;41.80;28.90;;;5.90;99.90;;;;;;5034047;28;20618;-79
2022/01/22 10:15:08;;;;;;;46.97;25.90;;;6.00;99.90;;;;;;5035882;28;20176;-79
2022/01/22 10:17:47;;;;;;;36.90;24.17;;;6.00;99.90;;;;;;5037143;28;20176;-80
2022/01/22 10:20:22;;;;;;;40.77;23.63;;;6.10;99.90;;;;;;5036500;28;20196;-80
2022/01/22 10:22:49;;;;;;;37.17;21.60;;;6.10;99.90;;;;;;5038084;28;20582;-80
2022/01/22 10:25:33;;;;;;;35.70;20.93;;;6.10;99.90;;;;;;5038608;28;20169;-80
2022/01/22 10:28:05;;;;;;;39.90;19.33;;;6.20;99.90;;;;;;5037762;28;20197;-80
2022/01/22 10:30:35;;;;;;;32.83;19.47;;;6.20;99.90;;;;;;5038217;28;20669;-80
2022/01/22 10:33:30;;;;;;;31.07;19.73;;;6.20;99.90;;;;;;5038445;28;20188;-80
2022/01/22 10:36:17;;;;;;;27.83;18.17;;;6.30;99.90;;;;;;5035764;28;20180;-79
2022/01/22 10:38:52;;;;;;;26.50;18.47;;;6.30;99.90;;;;;;5036172;28;20207;-80
2022/01/22 10:41:31;;;;;;;32.00;18.93;;;6.30;99.90;;;;;;5034479;28;20208;-80
2022/01/22 10:43:57;;;;;;;32.60;19.60;;;6.40;99.90;;;;;;5034691;28;20180;-80
2022/01/22 10:49:45;;;;;;;31.03;17.83;;;6.40;99.90;;;;;;5036330;28;20295;-80
2022/01/22 10:52:11;;;;;;;27.77;16.43;;;6.50;99.90;;;;;;5034645;28;20247;-80
2022/01/22 10:54:38;;;;;;;30.40;17.43;;;6.50;99.90;;;;;;5036415;28;20176;-79
2022/01/22 10:57:18;;;;;;;27.70;17.20;;;6.50;99.90;;;;;;5036094;28;20180;-80
2022/01/22 10:59:49;;;;;;;26.00;15.17;;;6.50;99.90;;;;;;5037750;28;20199;-80
2022/01/22 11:02:20;;;;;;;23.93;15.50;;;6.50;99.90;;;;;;5036014;28;20177;-80
2022/01/22 11:04:46;;;;;;;24.43;16.10;;;6.60;99.90;;;;;;5034870;28;20221;-80
2022/01/22 11:07:19;;;;;;;23.53;15.43;;;6.60;99.90;;;;;;5037236;28;20219;-80
2022/01/22 11:09:45;;;;;;;29.13;14.43;;;6.60;99.90;;;;;;5036573;28;20216;-80
2022/01/22 11:12:11;;;;;;;27.53;13.77;;;6.70;99.90;;;;;;5037452;28;20176;-80
2022/01/22 11:14:38;;;;;;;23.57;14.40;;;6.70;99.90;;;;;;5035268;28;20188;-80
2022/01/22 11:17:07;;;;;;;26.67;13.77;;;6.70;99.90;;;;;;5037186;28;20681;-79
2022/01/22 11:19:35;;;;;;;21.77;14.20;;;6.70;99.90;;;;;;5037203;28;20180;-80
2022/01/22 11:22:11;;;;;;;22.47;14.00;;;6.60;99.90;;;;;;5038346;28;20184;-80
2022/01/22 11:24:40;;;;;;;20.23;12.10;;;6.60;99.90;;;;;;5038183;28;20172;-80
2022/01/22 11:27:10;;;;;;;21.23;13.10;;;6.60;99.90;;;;;;5037651;28;20187;-79
2022/01/22 11:29:58;;;;;;;26.23;13.00;;;6.50;99.90;;;;;;5037243;28;20231;-80
2022/01/22 11:32:31;;;;;;;23.50;14.00;;;6.50;99.90;;;;;;5038851;28;20199;-80
2022/01/22 11:35:01;;;;;;;26.43;14.13;;;6.50;99.90;;;;;;5039272;28;20187;-79
2022/01/22 11:37:43;;;;;;;18.67;12.60;;;6.50;99.90;;;;;;5039217;28;20172;-80
2022/01/22 11:40:09;;;;;;;23.83;13.27;;;6.60;99.90;;;;;;5036464;28;20203;-80
2022/01/22 11:43:07;;;;;;;24.47;15.03;;;6.50;99.90;;;;;;5032924;28;20172;-80
2022/01/22 11:45:37;;;;;;;26.57;14.30;;;6.50;99.90;;;;;;5034434;28;20160;-79
2022/01/22 11:48:13;;;;;;;27.97;13.40;;;6.60;99.90;;;;;;5037581;28;20199;-79
2022/01/22 11:50:41;;;;;;;23.97;14.23;;;6.60;99.90;;;;;;5039055;28;20200;-78
2022/01/22 11:53:26;;;;;;;20.83;13.73;;;6.60;99.90;;;;;;5037041;28;20268;-78
2022/01/22 11:56:43;;;;;;;22.70;14.37;;;6.60;99.90;;;;;;5031806;28;20172;-79
2022/01/22 11:59:11;;;;;;;27.67;15.83;;;6.60;99.90;;;;;;5036779;28;20204;-79
2022/01/22 12:01:50;;;;;;;23.10;16.23;;;6.60;99.90;;;;;;5031528;28;20219;-78
2022/01/22 12:04:20;;;;;;;21.97;14.90;;;6.60;99.90;;;;;;5032000;28;20229;-79
2022/01/22 12:07:19;;;;;;;23.03;14.90;;;6.50;99.90;;;;;;5031420;28;20221;-79
2022/01/22 12:09:53;;;;;;;26.00;14.47;;;6.50;99.90;;;;;;5039383;28;20229;-79
2022/01/22 12:15:41;;;;;;;22.70;13.70;;;6.50;99.90;;;;;;5014588;28;20160;-80
2022/01/22 12:18:14;;;;;;;21.73;13.57;;;6.50;99.90;;;;;;5013261;28;20183;-80
2022/01/22 12:23:41;;;;;;;23.37;15.17;;;6.50;99.90;;;;;;5025106;28;20169;-79
2022/01/22 12:26:08;;;;;;;23.27;13.73;;;6.60;99.90;;;;;;5034688;28;20652;-79
2022/01/22 12:28:39;;;;;;;24.50;14.17;;;6.70;99.90;;;;;;5033331;28;20256;-79
2022/01/22 12:31:08;;;;;;;21.20;12.80;;;6.60;99.90;;;;;;5033132;28;20219;-79
2022/01/22 12:33:33;;;;;;;19.20;12.43;;;6.50;99.90;;;;;;5033307;28;20594;-79
2022/01/22 12:36:09;;;;;;;24.57;12.70;;;6.50;99.90;;;;;;5034240;28;20172;-79
2022/01/22 12:41:26;;;;;;;25.37;13.10;;;6.60;99.90;;;;;;5042634;28;20187;-79
2022/01/22 12:44:01;;;;;;;24.80;12.13;;;6.50;99.90;;;;;;5052732;28;20182;-79
2022/01/22 12:46:29;;;;;;;23.67;13.57;;;6.50;99.90;;;;;;5052197;28;20231;-79
2022/01/22 12:48:56;;;;;;;23.60;14.67;;;6.50;99.90;;;;;;5052570;28;20227;-79
2022/01/22 12:54:48;;;;;;;28.03;16.43;;;6.50;99.90;;;;;;5047704;28;20208;-79
2022/01/22 12:57:16;;;;;;;29.37;15.30;;;6.50;99.90;;;;;;5047562;28;20162;-81
2022/01/22 13:00:11;;;;;;;25.30;14.33;;;6.50;99.90;;;;;;5041378;28;20232;-81
2022/01/22 13:02:51;;;;;;;29.07;17.33;;;6.50;99.90;;;;;;5033016;28;20171;-80
2022/01/22 13:05:19;;;;;;;23.27;15.83;;;6.50;99.90;;;;;;5032324;28;20179;-81
2022/01/22 13:07:55;;;;;;;28.13;17.13;;;6.50;99.90;;;;;;5028742;28;20212;-81
2022/01/22 13:10:32;;;;;;;32.60;17.27;;;6.60;99.90;;;;;;5032253;28;20195;-81
2022/01/22 13:12:57;;;;;;;25.70;16.13;;;6.50;99.90;;;;;;5029519;28;20160;-81
2022/01/22 13:15:23;;;;;;;20.50;15.07;;;6.60;99.90;;;;;;5031721;28;20236;-81
2022/01/22 13:17:58;;;;;;;23.27;15.97;;;6.60;99.90;;;;;;5033498;28;20634;-81
2022/01/22 13:20:25;;;;;;;23.33;16.03;;;6.60;99.90;;;;;;5032800;28;20221;-81
2022/01/22 13:22:52;;;;;;;24.87;15.37;;;6.60;99.90;;;;;;5031428;28;20646;-81
2022/01/22 13:25:19;;;;;;;24.23;16.20;;;6.60;99.90;;;;;;5031645;28;20184;-81
2022/01/22 13:28:03;;;;;;;22.23;15.43;;;6.60;99.90;;;;;;5013670;28;20177;-81
2022/01/22 13:30:35;;;;;;;26.43;15.37;;;6.50;99.90;;;;;;5026052;28;20192;-81
2022/01/22 13:33:23;;;;;;;27.20;15.37;;;6.60;99.90;;;;;;5034595;28;20185;-81
2022/01/22 13:38:52;;;;;;;28.27;15.80;;;6.60;99.90;;;;;;5034927;28;20165;-81
2022/01/22 13:49:51;;;;;;;25.67;14.33;;;6.60;99.90;;;;;;5097330;28;20764;-81
2022/01/22 13:52:18;;;;;;;20.47;13.77;;;6.60;99.90;;;;;;5042603;28;20244;-81
2022/01/22 13:54:48;;;;;;;21.13;14.37;;;6.60;99.90;;;;;;5034810;28;20222;-81
2022/01/22 13:57:20;;;;;;;21.20;13.53;;;6.60;99.90;;;;;;5033505;28;20186;-81
2022/01/22 13:59:48;;;;;;;27.97;13.67;;;6.60;99.90;;;;;;5033213;28;20206;-81
2022/01/22 14:05:01;;;;;;;22.07;12.07;;;6.60;99.90;;;;;;5036353;28;20161;-82
2022/01/22 14:07:38;;;;;;;27.20;12.10;;;6.60;99.90;;;;;;5035308;28;20188;-81
2022/01/22 14:10:08;;;;;;;22.90;12.80;;;6.60;99.90;;;;;;5034598;28;20204;-81
2022/01/22 14:12:46;;;;;;;18.63;11.93;;;6.60;99.90;;;;;;5034478;28;20179;-81
2022/01/22 14:15:25;;;;;;;22.63;13.23;;;6.60;99.90;;;;;;5039860;28;20583;-81
2022/01/22 14:20:34;;;;;;;21.40;12.17;;;6.60;99.90;;;;;;5039270;28;20192;-80
2022/01/22 14:23:06;;;;;;;21.07;13.07;;;6.60;99.90;;;;;;5037802;28;20177;-81
2022/01/22 14:26:00;;;;;;;18.67;13.10;;;6.60;99.90;;;;;;5038669;28;20164;-82
2022/01/22 14:28:37;;;;;;;19.27;12.67;;;6.60;99.90;;;;;;5037592;28;20185;-81
2022/01/22 14:31:33;;;;;;;19.70;13.33;;;6.60;99.90;;;;;;5037665;28;20244;-81
2022/01/22 14:34:01;;;;;;;17.53;12.40;;;6.60;99.90;;;;;;5039090;28;20711;-80
2022/01/22 14:36:40;;;;;;;18.47;13.27;;;6.50;99.90;;;;;;5037618;28;20656;-80
2022/01/22 14:39:17;;;;;;;23.33;12.17;;;6.50;99.90;;;;;;5038167;28;20160;-79
2022/01/22 14:44:44;;;;;;;19.97;13.33;;;6.50;99.90;;;;;;5038048;28;20164;-79
2022/01/22 14:47:17;;;;;;;20.37;12.40;;;6.50;99.90;;;;;;5039200;28;20740;-79
2022/01/22 14:49:46;;;;;;;19.93;11.47;;;6.50;99.90;;;;;;5036968;28;20221;-80
2022/01/22 14:52:14;;;;;;;24.37;11.23;;;6.50;99.90;;;;;;5036693;28;20172;-80
2022/01/22 14:54:42;;;;;;;18.07;10.17;;;6.50;99.90;;;;;;5035984;28;20328;-80